Flight Track Log - Related Links

Times and Time Zones

All times are in EDT time to prevent confusion due to time zone crossing. See the AWI4083 flight status page for this flight to view local times or setup timezone preferences in your user account.

Time Position Orientation Groundspeed Altitude Reporting Facility
EDT Latitude Longitude Course Direction KTS MPH feet Rate Location/Type
Tue 12:27:22 PM 38.8833 -77.0500 303° West 180 207 1,400  Level Potomac TRACON
Tue 12:28:22 PM 38.9167 -77.1167 303° West 241 277 3,600 2,100 Climbing Potomac TRACON
Tue 12:29:22 PM 38.9833 -77.1667 330° Northwest 296 341 5,600 2,200 Climbing Potomac TRACON
Tue 12:30:22 PM 39.0500 -77.1333 21° North 290 334 8,000 2,331 Climbing Potomac TRACON
Tue 12:31:23 PM 39.0167 -77.0500 117° Southeast 257 296 10,300 2,231 Climbing Potomac TRACON
Tue 12:32:23 PM 38.9667 -77.0167 153° Southeast 260 299 12,500 2,050 Climbing Potomac TRACON
Tue 12:33:23 PM 38.9000 -76.9667 150° Southeast 297 342 14,400 1,542 Climbing Potomac TRACON
Tue 12:35:22 PM 38.7628 -76.8750 152° Southeast 308 354 17,100 1,542 Climbing Washington Center
Tue 12:36:22 PM 38.6903 -76.8206 150° Southeast 302 348 19,000 1,475 Climbing Washington Center
Tue 12:37:20 PM 38.6117 -76.7661 152° Southeast 308 354 20,000 807 Climbing Washington Center
Tue 12:38:21 PM 38.5203 -76.7247 160° South 327 376 20,600 1,041 Climbing Washington Center
Tue 12:39:21 PM 38.4203 -76.7100 173° South 352 405 22,100 1,190 Climbing Washington Center
Tue 12:40:22 PM 38.3183 -76.6953 174° South 357 411 23,000 1,041 Climbing Washington Center
Tue 12:41:22 PM 38.2058 -76.6778 173° South 364 419 24,200 1,322 Climbing Washington Center
Tue 12:42:20 PM 38.1081 -76.6658 175° South 370 426 25,600 1,169 Climbing Washington Center
Tue 12:43:20 PM 38.0081 -76.6511 173° South 370 426 26,500 744 Climbing Washington Center
Tue 12:44:21 PM 37.9058 -76.6550 182° South 370 426 27,100 694 Climbing Washington Center
Tue 12:45:21 PM 37.8033 -76.6667 185° South 370 426 27,900 992 Climbing Washington Center
Tue 12:46:22 PM 37.6969 -76.6808 186° South 370 426 29,100 1,041 Climbing Washington Center
Tue 12:47:22 PM 37.5989 -76.6900 184° South 365 420 30,000 450 Climbing Washington Center
Tue 12:48:22 PM 37.4964 -76.7042 186° South 370 426 30,000  Level Washington Center
Tue 12:49:20 PM 37.3897 -76.7342 193° South 380 437 30,000  Level Washington Center
Tue 12:50:21 PM 37.2956 -76.7719 198° South 386 444 30,000  Level Washington Center
Tue 12:51:21 PM 37.1931 -76.8147 198° South 396 456 30,000  Level Washington Center
Tue 12:52:22 PM 37.0944 -76.8572 199° South 391 450 30,000  Level Washington Center
Tue 12:53:20 PM 36.9961 -76.8972 198° South 386 444 30,000  Level Washington Center
Tue 12:54:21 PM 36.8975 -76.9397 199° South 386 444 30,000  Level Washington Center
Tue 12:55:22 PM 36.7969 -76.9769 197° South 386 444 30,000  Level Washington Center
Tue 12:56:22 PM 36.7025 -77.0244 202° Southwest 386 444 30,000  Level Washington Center
Tue 12:57:20 PM 36.6181 -77.1006 216° Southwest 376 433 30,000  Level Washington Center
Tue 12:58:20 PM 36.5336 -77.1817 218° Southwest 381 438 30,000  Level Washington Center
Tue 12:59:21 PM 36.4533 -77.2628 219° Southwest 381 438 30,000  Level Washington Center
Tue 01:00:20 PM 36.3708 -77.3383 216° Southwest 381 438 30,000  Level Washington Center
Tue 01:01:20 PM 36.2733 -77.4264 216° Southwest 381 438 30,000  Level Washington Center
Tue 01:02:21 PM 36.1972 -77.5017 219° Southwest 387 445 30,000  Level Washington Center
Tue 01:03:21 PM 36.1061 -77.5844 216° Southwest 399 459 30,000  Level Washington Center
Tue 01:04:22 PM 36.0150 -77.6694 217° Southwest 409 471 30,000  Level Washington Center
Tue 01:05:22 PM 35.9197 -77.7517 215° Southwest 420 483 30,000  Level Washington Center
Tue 01:06:22 PM 35.8244 -77.8258 212° Southwest 420 483 30,000  Level Washington Center
Tue 01:07:20 PM 35.7247 -77.9050 213° Southwest 425 489 30,000 -407 Level Washington Center
Tue 01:08:20 PM 35.6231 -77.9811 211° Southwest 425 489 29,200 -793 Descending Washington Center
Tue 01:09:21 PM 35.5214 -78.0622 213° Southwest 425 489 28,400 -590 Descending Washington Center
Tue 01:10:22 PM 35.4194 -78.1408 212° Southwest 430 495 28,000 -202 Descending Washington Center
Tue 01:11:20 PM 35.3197 -78.2192 213° Southwest 430 495 28,000  Level Washington Center
Tue 01:12:21 PM 35.2178 -78.2972 212° Southwest 435 501 28,000  Level Washington Center
Tue 01:13:21 PM 35.1181 -78.3725 212° Southwest 435 501 28,000  Level Washington Center
Tue 01:17:02 PM 34.7356 -78.6636 212° Southwest 426 490 28,000  Level Jacksonville Center
Tue 01:18:02 PM 34.6358 -78.7392 212° Southwest 426 490 28,000  Level Jacksonville Center
Tue 01:19:02 PM 34.5361 -78.8172 213° Southwest 426 490 28,000  Level Jacksonville Center
Tue 01:20:02 PM 34.4508 -78.8867 214° Southwest 426 490 28,000 -50 Level Jacksonville Center
Tue 01:21:02 PM 34.3592 -78.9561 212° Southwest 414 476 27,900 -750 Descending Jacksonville Center
Tue 01:22:02 PM 34.2611 -79.0261 211° Southwest 409 471 26,500 -1,450 Descending Jacksonville Center
Tue 01:23:02 PM 34.1542 -79.0758 201° Southwest 409 471 25,000 -1,500 Descending Jacksonville Center
Tue 01:24:02 PM 34.0431 -79.1233 200° South 415 478 23,500 -1,500 Descending Jacksonville Center
Tue 01:25:02 PM 33.9339 -79.1731 201° Southwest 427 491 22,000 -1,500 Descending Jacksonville Center
Tue 01:26:02 PM 33.8206 -79.2228 200° South 427 491 20,500 -1,500 Descending Jacksonville Center
Tue 01:27:02 PM 33.7181 -79.2869 208° Southwest 427 491 19,000 -1,600 Descending Jacksonville Center
Tue 01:28:02 PM 33.6283 -79.3581 213° Southwest 398 458 17,300 -1,450 Descending Jacksonville Center
Tue 01:29:02 PM 33.5467 -79.4186 212° Southwest 367 422 16,100 -1,200 Descending Jacksonville Center
Tue 01:30:02 PM 33.4689 -79.4789 213° Southwest 352 405 14,900 -1,200 Descending Jacksonville Center
Tue 01:31:02 PM 33.3911 -79.5367 212° Southwest 347 399 13,700 -2,250 Descending Jacksonville Center
Tue 01:32:02 PM 33.3156 -79.5942 212° Southwest 341 392 10,400 -2,450 Descending Jacksonville Center
Tue 01:33:02 PM 33.2519 -79.6414 212° Southwest 314 361 8,800 -1,750 Descending Jacksonville Center
Tue 01:34:02 PM 33.1992 -79.6953 221° Southwest 278 320 6,900 -1,850 Descending Jacksonville Center
Tue 01:35:02 PM 33.1672 -79.7611 240° Southwest 245 282 5,100 -1,800 Descending Jacksonville Center
Tue 01:36:02 PM 33.1356 -79.8292 241° Southwest 245 282 3,300 -1,750 Descending Jacksonville Center
Tue 01:37:02 PM 33.0889 -79.8828 224° Southwest 239 275 1,600 -900 Descending Jacksonville Center
Tue 01:38:02 PM 33.0439 -79.9264 219° Southwest 224 258 1,500 -50 Descending Jacksonville Center
Tue 01:39:02 PM 33.0033 -79.9697 222° Southwest 211 243 1,500  Level Jacksonville Center
Tue 01:41:00 PM 32.8986 -80.0405 180° South  Level Estimated
Tue 01:48:00 PM 32.8986 -80.0405 348° North  Level Estimated
Tue 01:49:00 PM 32.8986 -80.0405 348° North  Level Estimated

Login

Don't have an account? Register now (free) for customized features, flight alerts, and more!